sensor_id;sensor_type;location;lat;lon;timestamp;P1;durP1;ratioP1;P2;durP2;ratioP2
12556;SDS011;6344;49.932;8.308;2022-08-21T00:00:11;9.67;;;5.73;;
12556;SDS011;6344;49.932;8.308;2022-08-21T00:02:44;6.37;;;5.20;;
12556;SDS011;6344;49.932;8.308;2022-08-21T00:05:12;10.43;;;6.13;;
12556;SDS011;6344;49.932;8.308;2022-08-21T00:07:40;7.00;;;5.83;;
12556;SDS011;6344;49.932;8.308;2022-08-21T00:10:07;7.90;;;5.00;;
12556;SDS011;6344;49.932;8.308;2022-08-21T00:12:35;5.23;;;4.73;;
12556;SDS011;6344;49.932;8.308;2022-08-21T00:15:02;7.97;;;5.13;;
12556;SDS011;6344;49.932;8.308;2022-08-21T00:17:30;6.60;;;4.77;;
12556;SDS011;6344;49.932;8.308;2022-08-21T00:19:56;6.40;;;5.67;;
12556;SDS011;6344;49.932;8.308;2022-08-21T00:22:23;8.30;;;5.60;;
12556;SDS011;6344;49.932;8.308;2022-08-21T00:24:51;6.47;;;5.40;;
12556;SDS011;6344;49.932;8.308;2022-08-21T00:27:18;6.97;;;4.87;;
12556;SDS011;6344;49.932;8.308;2022-08-21T00:29:44;6.37;;;5.70;;
12556;SDS011;6344;49.932;8.308;2022-08-21T00:32:11;6.27;;;5.77;;
12556;SDS011;6344;49.932;8.308;2022-08-21T00:34:38;10.20;;;5.73;;
12556;SDS011;6344;49.932;8.308;2022-08-21T00:37:04;7.30;;;5.60;;
12556;SDS011;6344;49.932;8.308;2022-08-21T00:39:32;7.87;;;5.90;;
12556;SDS011;6344;49.932;8.308;2022-08-21T00:42:00;8.93;;;5.60;;
12556;SDS011;6344;49.932;8.308;2022-08-21T00:44:27;6.43;;;5.20;;
12556;SDS011;6344;49.932;8.308;2022-08-21T00:46:55;7.70;;;5.50;;
12556;SDS011;6344;49.932;8.308;2022-08-21T00:49:22;6.27;;;5.67;;
12556;SDS011;6344;49.932;8.308;2022-08-21T00:51:50;8.20;;;5.67;;
12556;SDS011;6344;49.932;8.308;2022-08-21T00:54:19;6.17;;;5.37;;
12556;SDS011;6344;49.932;8.308;2022-08-21T00:56:50;6.70;;;5.00;;
12556;SDS011;6344;49.932;8.308;2022-08-21T00:59:22;10.07;;;5.40;;
12556;SDS011;6344;49.932;8.308;2022-08-21T01:01:51;9.10;;;5.43;;
12556;SDS011;6344;49.932;8.308;2022-08-21T01:04:18;6.93;;;5.80;;
12556;SDS011;6344;49.932;8.308;2022-08-21T01:06:45;6.83;;;5.60;;
12556;SDS011;6344;49.932;8.308;2022-08-21T01:09:12;8.97;;;5.07;;
12556;SDS011;6344;49.932;8.308;2022-08-21T01:11:39;5.03;;;4.53;;
12556;SDS011;6344;49.932;8.308;2022-08-21T01:14:07;6.63;;;4.97;;
12556;SDS011;6344;49.932;8.308;2022-08-21T01:16:39;6.73;;;4.90;;
12556;SDS011;6344;49.932;8.308;2022-08-21T01:19:08;5.40;;;4.63;;
12556;SDS011;6344;49.932;8.308;2022-08-21T01:21:37;4.40;;;4.00;;
12556;SDS011;6344;49.932;8.308;2022-08-21T01:24:04;9.37;;;5.50;;
12556;SDS011;6344;49.932;8.308;2022-08-21T01:26:32;6.00;;;5.40;;
12556;SDS011;6344;49.932;8.308;2022-08-21T01:29:02;9.93;;;5.00;;
12556;SDS011;6344;49.932;8.308;2022-08-21T01:31:33;6.70;;;5.20;;
12556;SDS011;6344;49.932;8.308;2022-08-21T01:34:00;6.13;;;5.23;;
12556;SDS011;6344;49.932;8.308;2022-08-21T01:36:26;11.33;;;5.43;;
12556;SDS011;6344;49.932;8.308;2022-08-21T01:38:55;4.80;;;4.40;;
12556;SDS011;6344;49.932;8.308;2022-08-21T01:41:21;6.83;;;5.10;;
12556;SDS011;6344;49.932;8.308;2022-08-21T01:43:48;5.90;;;4.30;;
12556;SDS011;6344;49.932;8.308;2022-08-21T01:46:15;6.00;;;4.70;;
12556;SDS011;6344;49.932;8.308;2022-08-21T01:48:42;9.23;;;5.83;;
12556;SDS011;6344;49.932;8.308;2022-08-21T01:51:09;5.63;;;5.00;;
12556;SDS011;6344;49.932;8.308;2022-08-21T01:53:36;6.50;;;4.97;;
12556;SDS011;6344;49.932;8.308;2022-08-21T01:56:06;5.50;;;5.00;;
12556;SDS011;6344;49.932;8.308;2022-08-21T01:58:35;6.27;;;4.77;;
12556;SDS011;6344;49.932;8.308;2022-08-21T02:01:02;6.13;;;5.53;;
12556;SDS011;6344;49.932;8.308;2022-08-21T02:03:29;5.10;;;4.60;;
12556;SDS011;6344;49.932;8.308;2022-08-21T02:05:56;7.70;;;5.00;;
12556;SDS011;6344;49.932;8.308;2022-08-21T02:08:23;8.23;;;5.03;;
12556;SDS011;6344;49.932;8.308;2022-08-21T02:10:50;7.50;;;4.80;;
12556;SDS011;6344;49.932;8.308;2022-08-21T02:16:40;7.60;;;5.70;;
12556;SDS011;6344;49.932;8.308;2022-08-21T02:19:09;8.43;;;7.17;;
12556;SDS011;6344;49.932;8.308;2022-08-21T02:21:36;8.97;;;5.90;;
12556;SDS011;6344;49.932;8.308;2022-08-21T02:24:03;9.30;;;6.67;;
12556;SDS011;6344;49.932;8.308;2022-08-21T02:26:30;8.40;;;5.90;;
12556;SDS011;6344;49.932;8.308;2022-08-21T02:28:57;5.90;;;4.83;;
12556;SDS011;6344;49.932;8.308;2022-08-21T02:31:23;7.00;;;5.57;;
12556;SDS011;6344;49.932;8.308;2022-08-21T02:33:52;6.13;;;5.57;;
12556;SDS011;6344;49.932;8.308;2022-08-21T02:36:19;6.47;;;5.77;;
12556;SDS011;6344;49.932;8.308;2022-08-21T02:38:46;8.30;;;6.77;;
12556;SDS011;6344;49.932;8.308;2022-08-21T02:41:14;7.20;;;5.60;;
12556;SDS011;6344;49.932;8.308;2022-08-21T02:43:42;6.13;;;5.53;;
12556;SDS011;6344;49.932;8.308;2022-08-21T02:46:10;9.63;;;6.70;;
12556;SDS011;6344;49.932;8.308;2022-08-21T02:48:38;6.87;;;6.00;;
12556;SDS011;6344;49.932;8.308;2022-08-21T02:51:08;6.93;;;5.70;;
12556;SDS011;6344;49.932;8.308;2022-08-21T02:53:36;6.57;;;5.87;;
12556;SDS011;6344;49.932;8.308;2022-08-21T02:56:04;6.40;;;5.40;;
12556;SDS011;6344;49.932;8.308;2022-08-21T02:58:34;6.00;;;5.40;;
12556;SDS011;6344;49.932;8.308;2022-08-21T03:01:03;5.83;;;4.77;;
12556;SDS011;6344;49.932;8.308;2022-08-21T03:03:34;7.27;;;5.00;;
12556;SDS011;6344;49.932;8.308;2022-08-21T03:06:01;6.50;;;5.90;;
12556;SDS011;6344;49.932;8.308;2022-08-21T03:08:29;5.37;;;4.87;;
12556;SDS011;6344;49.932;8.308;2022-08-21T03:10:56;6.57;;;5.97;;
12556;SDS011;6344;49.932;8.308;2022-08-21T03:13:25;7.83;;;5.23;;
12556;SDS011;6344;49.932;8.308;2022-08-21T03:15:53;13.93;;;6.20;;
12556;SDS011;6344;49.932;8.308;2022-08-21T03:18:20;6.00;;;5.30;;
12556;SDS011;6344;49.932;8.308;2022-08-21T03:20:47;6.80;;;5.90;;
12556;SDS011;6344;49.932;8.308;2022-08-21T03:23:14;7.37;;;6.47;;
12556;SDS011;6344;49.932;8.308;2022-08-21T03:25:43;6.87;;;5.60;;
12556;SDS011;6344;49.932;8.308;2022-08-21T03:28:11;6.33;;;5.63;;
12556;SDS011;6344;49.932;8.308;2022-08-21T03:30:40;7.97;;;5.70;;
12556;SDS011;6344;49.932;8.308;2022-08-21T03:33:07;7.57;;;5.57;;
12556;SDS011;6344;49.932;8.308;2022-08-21T03:35:34;7.90;;;6.03;;
12556;SDS011;6344;49.932;8.308;2022-08-21T03:38:00;6.73;;;5.33;;
12556;SDS011;6344;49.932;8.308;2022-08-21T03:40:28;5.53;;;4.90;;
12556;SDS011;6344;49.932;8.308;2022-08-21T03:42:56;6.30;;;5.70;;
12556;SDS011;6344;49.932;8.308;2022-08-21T03:45:24;5.53;;;5.03;;
12556;SDS011;6344;49.932;8.308;2022-08-21T03:47:52;6.00;;;5.23;;
12556;SDS011;6344;49.932;8.308;2022-08-21T03:50:22;7.17;;;5.73;;
12556;SDS011;6344;49.932;8.308;2022-08-21T03:52:49;7.43;;;5.57;;
12556;SDS011;6344;49.932;8.308;2022-08-21T03:55:16;8.20;;;6.30;;
12556;SDS011;6344;49.932;8.308;2022-08-21T03:57:43;9.50;;;6.60;;
12556;SDS011;6344;49.932;8.308;2022-08-21T04:00:13;6.60;;;5.80;;
12556;SDS011;6344;49.932;8.308;2022-08-21T04:02:41;7.23;;;6.27;;
12556;SDS011;6344;49.932;8.308;2022-08-21T04:05:09;7.27;;;5.90;;
12556;SDS011;6344;49.932;8.308;2022-08-21T04:07:36;7.27;;;5.93;;
12556;SDS011;6344;49.932;8.308;2022-08-21T04:10:03;9.00;;;5.50;;
12556;SDS011;6344;49.932;8.308;2022-08-21T04:12:30;6.90;;;6.30;;
12556;SDS011;6344;49.932;8.308;2022-08-21T04:14:57;6.67;;;6.17;;
12556;SDS011;6344;49.932;8.308;2022-08-21T04:17:25;11.73;;;7.07;;
12556;SDS011;6344;49.932;8.308;2022-08-21T04:19:52;7.07;;;6.37;;
12556;SDS011;6344;49.932;8.308;2022-08-21T04:22:19;8.77;;;6.50;;
12556;SDS011;6344;49.932;8.308;2022-08-21T04:24:45;6.90;;;6.30;;
12556;SDS011;6344;49.932;8.308;2022-08-21T04:27:12;6.93;;;6.30;;
12556;SDS011;6344;49.932;8.308;2022-08-21T04:29:39;7.63;;;6.80;;
12556;SDS011;6344;49.932;8.308;2022-08-21T04:32:06;8.30;;;6.57;;
12556;SDS011;6344;49.932;8.308;2022-08-21T04:34:34;10.83;;;6.30;;
12556;SDS011;6344;49.932;8.308;2022-08-21T04:37:01;6.77;;;5.97;;
12556;SDS011;6344;49.932;8.308;2022-08-21T04:39:28;6.83;;;6.23;;
12556;SDS011;6344;49.932;8.308;2022-08-21T04:41:54;8.33;;;6.33;;
12556;SDS011;6344;49.932;8.308;2022-08-21T04:44:21;7.30;;;6.53;;
12556;SDS011;6344;49.932;8.308;2022-08-21T04:46:48;10.47;;;7.20;;
12556;SDS011;6344;49.932;8.308;2022-08-21T04:49:15;8.00;;;7.20;;
12556;SDS011;6344;49.932;8.308;2022-08-21T04:51:43;9.47;;;6.70;;
12556;SDS011;6344;49.932;8.308;2022-08-21T04:54:10;10.33;;;6.13;;
12556;SDS011;6344;49.932;8.308;2022-08-21T04:56:41;8.43;;;7.50;;
12556;SDS011;6344;49.932;8.308;2022-08-21T04:59:13;7.73;;;6.90;;
12556;SDS011;6344;49.932;8.308;2022-08-21T05:01:43;6.73;;;6.03;;
12556;SDS011;6344;49.932;8.308;2022-08-21T05:04:11;8.03;;;6.57;;
12556;SDS011;6344;49.932;8.308;2022-08-21T05:06:40;17.50;;;8.60;;
12556;SDS011;6344;49.932;8.308;2022-08-21T05:09:11;9.90;;;6.13;;
12556;SDS011;6344;49.932;8.308;2022-08-21T05:11:40;12.20;;;7.27;;
12556;SDS011;6344;49.932;8.308;2022-08-21T05:14:07;9.90;;;7.43;;
12556;SDS011;6344;49.932;8.308;2022-08-21T05:16:34;7.47;;;6.73;;
12556;SDS011;6344;49.932;8.308;2022-08-21T05:19:01;8.67;;;6.30;;
12556;SDS011;6344;49.932;8.308;2022-08-21T05:21:28;7.70;;;6.80;;
12556;SDS011;6344;49.932;8.308;2022-08-21T05:23:54;11.03;;;6.70;;
12556;SDS011;6344;49.932;8.308;2022-08-21T05:26:22;8.50;;;7.00;;
12556;SDS011;6344;49.932;8.308;2022-08-21T05:28:49;9.43;;;6.90;;
12556;SDS011;6344;49.932;8.308;2022-08-21T05:31:17;8.47;;;6.67;;
12556;SDS011;6344;49.932;8.308;2022-08-21T05:33:43;6.93;;;5.87;;
12556;SDS011;6344;49.932;8.308;2022-08-21T05:36:10;10.03;;;6.90;;
12556;SDS011;6344;49.932;8.308;2022-08-21T05:38:37;11.67;;;6.20;;
12556;SDS011;6344;49.932;8.308;2022-08-21T05:41:03;7.83;;;6.97;;
12556;SDS011;6344;49.932;8.308;2022-08-21T05:43:31;11.60;;;5.90;;
12556;SDS011;6344;49.932;8.308;2022-08-21T05:46:01;6.80;;;5.97;;
12556;SDS011;6344;49.932;8.308;2022-08-21T05:48:29;7.40;;;6.07;;
12556;SDS011;6344;49.932;8.308;2022-08-21T05:50:56;9.57;;;6.20;;
12556;SDS011;6344;49.932;8.308;2022-08-21T05:53:24;5.73;;;5.23;;
12556;SDS011;6344;49.932;8.308;2022-08-21T05:55:51;6.50;;;5.90;;
12556;SDS011;6344;49.932;8.308;2022-08-21T05:58:19;8.90;;;6.10;;
12556;SDS011;6344;49.932;8.308;2022-08-21T06:00:49;6.63;;;5.90;;
12556;SDS011;6344;49.932;8.308;2022-08-21T06:03:18;8.17;;;5.73;;
12556;SDS011;6344;49.932;8.308;2022-08-21T06:05:46;6.57;;;5.90;;
12556;SDS011;6344;49.932;8.308;2022-08-21T06:08:13;10.77;;;6.60;;
12556;SDS011;6344;49.932;8.308;2022-08-21T06:10:41;8.03;;;6.53;;
12556;SDS011;6344;49.932;8.308;2022-08-21T06:13:08;6.83;;;6.20;;
12556;SDS011;6344;49.932;8.308;2022-08-21T06:15:35;7.20;;;6.33;;
12556;SDS011;6344;49.932;8.308;2022-08-21T06:18:03;5.60;;;5.10;;
12556;SDS011;6344;49.932;8.308;2022-08-21T06:20:30;7.23;;;6.53;;
12556;SDS011;6344;49.932;8.308;2022-08-21T06:22:57;9.37;;;6.30;;
12556;SDS011;6344;49.932;8.308;2022-08-21T06:25:24;9.80;;;6.90;;
12556;SDS011;6344;49.932;8.308;2022-08-21T06:27:51;7.50;;;6.47;;
12556;SDS011;6344;49.932;8.308;2022-08-21T06:30:18;9.83;;;6.00;;
12556;SDS011;6344;49.932;8.308;2022-08-21T06:32:45;6.43;;;5.90;;
12556;SDS011;6344;49.932;8.308;2022-08-21T06:35:15;6.70;;;6.10;;
12556;SDS011;6344;49.932;8.308;2022-08-21T06:37:42;8.40;;;6.00;;
12556;SDS011;6344;49.932;8.308;2022-08-21T06:40:09;6.57;;;5.97;;
12556;SDS011;6344;49.932;8.308;2022-08-21T06:42:37;6.20;;;5.60;;
12556;SDS011;6344;49.932;8.308;2022-08-21T06:45:04;5.77;;;5.37;;
12556;SDS011;6344;49.932;8.308;2022-08-21T06:47:31;7.40;;;5.60;;
12556;SDS011;6344;49.932;8.308;2022-08-21T06:49:58;5.87;;;5.27;;
12556;SDS011;6344;49.932;8.308;2022-08-21T06:52:26;8.07;;;6.20;;
12556;SDS011;6344;49.932;8.308;2022-08-21T06:54:52;6.00;;;5.37;;
12556;SDS011;6344;49.932;8.308;2022-08-21T06:57:19;7.50;;;5.83;;
12556;SDS011;6344;49.932;8.308;2022-08-21T06:59:46;6.27;;;5.73;;
12556;SDS011;6344;49.932;8.308;2022-08-21T07:02:13;7.90;;;5.70;;
12556;SDS011;6344;49.932;8.308;2022-08-21T07:04:40;6.63;;;5.93;;
12556;SDS011;6344;49.932;8.308;2022-08-21T07:07:06;6.80;;;6.23;;
12556;SDS011;6344;49.932;8.308;2022-08-21T07:09:34;5.87;;;5.27;;
12556;SDS011;6344;49.932;8.308;2022-08-21T07:12:02;6.67;;;5.83;;
12556;SDS011;6344;49.932;8.308;2022-08-21T07:14:29;6.60;;;6.00;;
12556;SDS011;6344;49.932;8.308;2022-08-21T07:16:56;7.30;;;6.60;;
12556;SDS011;6344;49.932;8.308;2022-08-21T07:19:23;6.53;;;6.00;;
12556;SDS011;6344;49.932;8.308;2022-08-21T07:21:49;6.30;;;5.70;;
12556;SDS011;6344;49.932;8.308;2022-08-21T07:24:16;6.90;;;6.40;;
12556;SDS011;6344;49.932;8.308;2022-08-21T07:26:44;6.70;;;6.10;;
12556;SDS011;6344;49.932;8.308;2022-08-21T07:29:11;6.67;;;5.97;;
12556;SDS011;6344;49.932;8.308;2022-08-21T07:31:38;8.10;;;6.80;;
12556;SDS011;6344;49.932;8.308;2022-08-21T07:34:04;7.03;;;6.20;;
12556;SDS011;6344;49.932;8.308;2022-08-21T07:36:31;8.70;;;6.73;;
12556;SDS011;6344;49.932;8.308;2022-08-21T07:38:58;7.90;;;7.07;;
12556;SDS011;6344;49.932;8.308;2022-08-21T07:41:25;7.93;;;7.23;;
12556;SDS011;6344;49.932;8.308;2022-08-21T07:43:55;8.57;;;7.97;;
12556;SDS011;6344;49.932;8.308;2022-08-21T07:46:22;10.30;;;7.57;;
12556;SDS011;6344;49.932;8.308;2022-08-21T07:48:49;7.10;;;6.60;;
12556;SDS011;6344;49.932;8.308;2022-08-21T07:51:16;7.93;;;7.03;;
12556;SDS011;6344;49.932;8.308;2022-08-21T07:53:47;9.53;;;8.20;;
12556;SDS011;6344;49.932;8.308;2022-08-21T07:56:15;8.83;;;7.97;;
12556;SDS011;6344;49.932;8.308;2022-08-21T07:58:42;8.27;;;7.43;;
12556;SDS011;6344;49.932;8.308;2022-08-21T08:01:10;8.33;;;7.53;;
12556;SDS011;6344;49.932;8.308;2022-08-21T08:03:37;8.50;;;7.77;;
12556;SDS011;6344;49.932;8.308;2022-08-21T08:06:04;7.70;;;7.10;;
12556;SDS011;6344;49.932;8.308;2022-08-21T08:08:33;8.00;;;7.30;;
12556;SDS011;6344;49.932;8.308;2022-08-21T08:11:00;7.93;;;7.20;;
12556;SDS011;6344;49.932;8.308;2022-08-21T08:13:27;9.07;;;7.77;;
12556;SDS011;6344;49.932;8.308;2022-08-21T08:15:54;8.97;;;8.27;;
12556;SDS011;6344;49.932;8.308;2022-08-21T08:18:22;8.50;;;7.73;;
12556;SDS011;6344;49.932;8.308;2022-08-21T08:20:48;9.37;;;8.67;;
12556;SDS011;6344;49.932;8.308;2022-08-21T08:23:15;8.30;;;7.70;;
12556;SDS011;6344;49.932;8.308;2022-08-21T08:25:42;8.57;;;7.87;;
12556;SDS011;6344;49.932;8.308;2022-08-21T08:28:08;8.33;;;7.70;;
12556;SDS011;6344;49.932;8.308;2022-08-21T08:30:35;8.37;;;7.77;;
12556;SDS011;6344;49.932;8.308;2022-08-21T08:33:02;9.37;;;8.50;;
12556;SDS011;6344;49.932;8.308;2022-08-21T08:35:30;9.37;;;8.67;;
12556;SDS011;6344;49.932;8.308;2022-08-21T08:37:57;8.23;;;7.43;;
12556;SDS011;6344;49.932;8.308;2022-08-21T08:40:26;8.40;;;7.70;;
12556;SDS011;6344;49.932;8.308;2022-08-21T08:42:58;8.37;;;7.67;;
12556;SDS011;6344;49.932;8.308;2022-08-21T08:45:25;8.70;;;7.93;;
12556;SDS011;6344;49.932;8.308;2022-08-21T08:47:53;7.77;;;7.07;;
12556;SDS011;6344;49.932;8.308;2022-08-21T08:50:25;8.00;;;7.30;;
12556;SDS011;6344;49.932;8.308;2022-08-21T08:53:05;7.43;;;6.83;;
12556;SDS011;6344;49.932;8.308;2022-08-21T08:55:39;9.20;;;8.40;;
12556;SDS011;6344;49.932;8.308;2022-08-21T08:58:08;10.73;;;8.00;;
12556;SDS011;6344;49.932;8.308;2022-08-21T09:00:40;8.63;;;7.73;;
12556;SDS011;6344;49.932;8.308;2022-08-21T09:03:06;8.13;;;7.63;;
12556;SDS011;6344;49.932;8.308;2022-08-21T09:05:36;9.47;;;8.63;;
12556;SDS011;6344;49.932;8.308;2022-08-21T09:08:14;9.13;;;8.30;;
12556;SDS011;6344;49.932;8.308;2022-08-21T09:11:06;8.13;;;7.33;;
12556;SDS011;6344;49.932;8.308;2022-08-21T09:13:41;9.87;;;9.03;;
12556;SDS011;6344;49.932;8.308;2022-08-21T09:16:16;8.70;;;7.90;;
12556;SDS011;6344;49.932;8.308;2022-08-21T09:18:52;8.10;;;7.33;;
12556;SDS011;6344;49.932;8.308;2022-08-21T09:21:28;7.93;;;7.43;;
12556;SDS011;6344;49.932;8.308;2022-08-21T09:24:08;11.33;;;10.30;;
12556;SDS011;6344;49.932;8.308;2022-08-21T09:26:57;8.50;;;7.80;;
12556;SDS011;6344;49.932;8.308;2022-08-21T09:29:31;8.20;;;7.10;;
12556;SDS011;6344;49.932;8.308;2022-08-21T09:32:11;7.67;;;6.90;;
12556;SDS011;6344;49.932;8.308;2022-08-21T09:34:53;6.40;;;6.00;;
12556;SDS011;6344;49.932;8.308;2022-08-21T09:37:22;7.10;;;6.40;;
12556;SDS011;6344;49.932;8.308;2022-08-21T09:39:50;8.20;;;7.50;;
12556;SDS011;6344;49.932;8.308;2022-08-21T09:42:21;7.30;;;6.60;;
12556;SDS011;6344;49.932;8.308;2022-08-21T09:45:09;7.10;;;6.33;;
12556;SDS011;6344;49.932;8.308;2022-08-21T09:47:40;7.93;;;6.10;;
12556;SDS011;6344;49.932;8.308;2022-08-21T09:50:09;6.57;;;5.97;;
12556;SDS011;6344;49.932;8.308;2022-08-21T09:52:42;6.90;;;6.30;;
12556;SDS011;6344;49.932;8.308;2022-08-21T09:55:14;6.03;;;5.43;;
12556;SDS011;6344;49.932;8.308;2022-08-21T09:57:58;7.23;;;6.63;;
12556;SDS011;6344;49.932;8.308;2022-08-21T10:00:27;7.87;;;5.90;;
12556;SDS011;6344;49.932;8.308;2022-08-21T10:03:08;8.33;;;6.40;;
12556;SDS011;6344;49.932;8.308;2022-08-21T10:05:49;6.77;;;6.17;;
12556;SDS011;6344;49.932;8.308;2022-08-21T10:08:18;7.20;;;6.30;;
12556;SDS011;6344;49.932;8.308;2022-08-21T10:10:45;6.37;;;5.87;;
12556;SDS011;6344;49.932;8.308;2022-08-21T10:13:20;7.03;;;5.97;;
12556;SDS011;6344;49.932;8.308;2022-08-21T10:15:54;6.00;;;5.50;;
12556;SDS011;6344;49.932;8.308;2022-08-21T10:18:36;6.50;;;6.00;;
12556;SDS011;6344;49.932;8.308;2022-08-21T10:21:08;6.40;;;5.60;;
12556;SDS011;6344;49.932;8.308;2022-08-21T10:23:56;9.57;;;8.10;;
12556;SDS011;6344;49.932;8.308;2022-08-21T10:26:32;6.63;;;6.03;;
12556;SDS011;6344;49.932;8.308;2022-08-21T10:29:10;7.30;;;6.60;;
12556;SDS011;6344;49.932;8.308;2022-08-21T10:31:48;8.77;;;7.13;;
12556;SDS011;6344;49.932;8.308;2022-08-21T10:34:31;10.63;;;6.37;;
12556;SDS011;6344;49.932;8.308;2022-08-21T10:37:10;6.90;;;6.30;;
12556;SDS011;6344;49.932;8.308;2022-08-21T10:39:45;6.23;;;5.73;;
12556;SDS011;6344;49.932;8.308;2022-08-21T10:42:26;6.63;;;6.00;;
12556;SDS011;6344;49.932;8.308;2022-08-21T10:45:02;6.00;;;5.47;;
12556;SDS011;6344;49.932;8.308;2022-08-21T10:47:38;6.63;;;6.00;;
12556;SDS011;6344;49.932;8.308;2022-08-21T10:50:13;6.13;;;5.20;;
12556;SDS011;6344;49.932;8.308;2022-08-21T10:52:59;5.83;;;4.90;;
12556;SDS011;6344;49.932;8.308;2022-08-21T10:55:48;5.80;;;4.90;;
12556;SDS011;6344;49.932;8.308;2022-08-21T10:58:23;5.27;;;4.80;;
12556;SDS011;6344;49.932;8.308;2022-08-21T11:00:56;5.73;;;4.90;;
12556;SDS011;6344;49.932;8.308;2022-08-21T11:03:33;4.90;;;4.50;;
12556;SDS011;6344;49.932;8.308;2022-08-21T11:06:09;5.47;;;4.97;;
12556;SDS011;6344;49.932;8.308;2022-08-21T11:08:39;5.00;;;4.60;;
12556;SDS011;6344;49.932;8.308;2022-08-21T11:11:10;5.23;;;4.77;;
12556;SDS011;6344;49.932;8.308;2022-08-21T11:13:40;5.27;;;4.70;;
12556;SDS011;6344;49.932;8.308;2022-08-21T11:16:12;5.40;;;4.30;;
12556;SDS011;6344;49.932;8.308;2022-08-21T11:18:45;5.23;;;4.83;;
12556;SDS011;6344;49.932;8.308;2022-08-21T11:21:24;5.20;;;4.83;;
12556;SDS011;6344;49.932;8.308;2022-08-21T11:23:59;5.83;;;4.70;;
12556;SDS011;6344;49.932;8.308;2022-08-21T11:26:32;5.27;;;4.70;;
12556;SDS011;6344;49.932;8.308;2022-08-21T11:29:04;7.43;;;4.93;;
12556;SDS011;6344;49.932;8.308;2022-08-21T11:31:38;5.80;;;5.20;;
12556;SDS011;6344;49.932;8.308;2022-08-21T11:34:21;5.00;;;4.60;;
12556;SDS011;6344;49.932;8.308;2022-08-21T11:36:59;4.93;;;4.57;;
12556;SDS011;6344;49.932;8.308;2022-08-21T11:39:30;5.77;;;5.23;;
12556;SDS011;6344;49.932;8.308;2022-08-21T11:42:08;6.30;;;4.50;;
12556;SDS011;6344;49.932;8.308;2022-08-21T11:44:46;5.73;;;5.00;;
12556;SDS011;6344;49.932;8.308;2022-08-21T11:47:19;4.80;;;4.40;;
12556;SDS011;6344;49.932;8.308;2022-08-21T11:50:00;5.70;;;5.23;;
12556;SDS011;6344;49.932;8.308;2022-08-21T11:52:38;4.20;;;3.80;;
12556;SDS011;6344;49.932;8.308;2022-08-21T11:55:11;5.60;;;5.03;;
12556;SDS011;6344;49.932;8.308;2022-08-21T11:57:44;5.67;;;4.93;;
12556;SDS011;6344;49.932;8.308;2022-08-21T12:00:18;4.73;;;4.37;;
12556;SDS011;6344;49.932;8.308;2022-08-21T12:02:52;6.23;;;5.07;;
12556;SDS011;6344;49.932;8.308;2022-08-21T12:05:30;5.10;;;4.60;;
12556;SDS011;6344;49.932;8.308;2022-08-21T12:08:03;5.03;;;4.20;;
12556;SDS011;6344;49.932;8.308;2022-08-21T12:10:33;5.23;;;4.47;;
12556;SDS011;6344;49.932;8.308;2022-08-21T12:13:06;6.23;;;5.63;;
12556;SDS011;6344;49.932;8.308;2022-08-21T12:15:36;5.60;;;5.10;;
12556;SDS011;6344;49.932;8.308;2022-08-21T12:18:04;5.10;;;4.70;;
12556;SDS011;6344;49.932;8.308;2022-08-21T12:20:34;4.50;;;4.10;;
12556;SDS011;6344;49.932;8.308;2022-08-21T12:23:14;4.37;;;4.07;;
12556;SDS011;6344;49.932;8.308;2022-08-21T12:25:44;5.00;;;4.33;;
12556;SDS011;6344;49.932;8.308;2022-08-21T12:28:24;5.30;;;4.80;;
12556;SDS011;6344;49.932;8.308;2022-08-21T12:30:51;4.70;;;4.40;;
12556;SDS011;6344;49.932;8.308;2022-08-21T12:33:20;6.47;;;4.83;;
12556;SDS011;6344;49.932;8.308;2022-08-21T12:35:50;5.13;;;4.47;;
12556;SDS011;6344;49.932;8.308;2022-08-21T12:38:21;4.70;;;4.30;;
12556;SDS011;6344;49.932;8.308;2022-08-21T12:40:53;5.80;;;4.70;;
12556;SDS011;6344;49.932;8.308;2022-08-21T12:43:24;4.83;;;4.43;;
12556;SDS011;6344;49.932;8.308;2022-08-21T12:45:55;4.37;;;4.07;;
12556;SDS011;6344;49.932;8.308;2022-08-21T12:48:25;3.63;;;3.43;;
12556;SDS011;6344;49.932;8.308;2022-08-21T12:50:57;5.40;;;5.00;;
12556;SDS011;6344;49.932;8.308;2022-08-21T12:53:36;5.57;;;4.33;;
12556;SDS011;6344;49.932;8.308;2022-08-21T12:56:08;6.83;;;4.30;;
12556;SDS011;6344;49.932;8.308;2022-08-21T12:58:39;6.83;;;4.80;;
12556;SDS011;6344;49.932;8.308;2022-08-21T13:01:07;7.80;;;4.67;;
12556;SDS011;6344;49.932;8.308;2022-08-21T13:03:43;5.00;;;4.50;;
12556;SDS011;6344;49.932;8.308;2022-08-21T13:06:12;4.50;;;4.20;;
12556;SDS011;6344;49.932;8.308;2022-08-21T13:08:43;4.37;;;4.07;;
12556;SDS011;6344;49.932;8.308;2022-08-21T13:11:13;4.90;;;4.47;;
12556;SDS011;6344;49.932;8.308;2022-08-21T13:13:45;5.50;;;4.00;;
12556;SDS011;6344;49.932;8.308;2022-08-21T13:16:17;5.30;;;4.80;;
12556;SDS011;6344;49.932;8.308;2022-08-21T13:18:51;5.10;;;4.70;;
12556;SDS011;6344;49.932;8.308;2022-08-21T13:21:21;5.63;;;4.40;;
12556;SDS011;6344;49.932;8.308;2022-08-21T13:24:13;4.87;;;4.47;;
12556;SDS011;6344;49.932;8.308;2022-08-21T13:26:42;4.80;;;4.40;;
12556;SDS011;6344;49.932;8.308;2022-08-21T13:29:09;5.50;;;4.13;;
12556;SDS011;6344;49.932;8.308;2022-08-21T13:31:38;4.40;;;4.10;;
12556;SDS011;6344;49.932;8.308;2022-08-21T13:34:07;4.20;;;3.80;;
12556;SDS011;6344;49.932;8.308;2022-08-21T13:36:37;4.23;;;3.83;;
12556;SDS011;6344;49.932;8.308;2022-08-21T13:39:09;4.63;;;4.23;;
12556;SDS011;6344;49.932;8.308;2022-08-21T13:41:39;4.70;;;4.30;;
12556;SDS011;6344;49.932;8.308;2022-08-21T13:44:14;4.53;;;4.13;;
12556;SDS011;6344;49.932;8.308;2022-08-21T13:46:42;4.20;;;3.90;;
12556;SDS011;6344;49.932;8.308;2022-08-21T13:49:10;4.00;;;3.73;;
12556;SDS011;6344;49.932;8.308;2022-08-21T13:51:40;5.03;;;4.13;;
12556;SDS011;6344;49.932;8.308;2022-08-21T13:54:20;4.33;;;4.03;;
12556;SDS011;6344;49.932;8.308;2022-08-21T13:56:49;4.67;;;4.27;;
12556;SDS011;6344;49.932;8.308;2022-08-21T13:59:26;4.70;;;4.30;;
12556;SDS011;6344;49.932;8.308;2022-08-21T14:01:55;7.80;;;4.30;;
12556;SDS011;6344;49.932;8.308;2022-08-21T14:04:26;4.50;;;4.10;;
12556;SDS011;6344;49.932;8.308;2022-08-21T14:06:58;4.17;;;3.83;;
12556;SDS011;6344;49.932;8.308;2022-08-21T14:09:28;5.20;;;4.10;;
12556;SDS011;6344;49.932;8.308;2022-08-21T14:11:56;4.77;;;3.60;;
12556;SDS011;6344;49.932;8.308;2022-08-21T14:14:26;4.30;;;3.93;;
12556;SDS011;6344;49.932;8.308;2022-08-21T14:16:56;4.20;;;3.90;;
12556;SDS011;6344;49.932;8.308;2022-08-21T14:19:26;4.97;;;4.10;;
12556;SDS011;6344;49.932;8.308;2022-08-21T14:21:54;4.50;;;4.10;;
12556;SDS011;6344;49.932;8.308;2022-08-21T14:24:29;4.30;;;4.00;;
12556;SDS011;6344;49.932;8.308;2022-08-21T14:26:57;4.10;;;3.80;;
12556;SDS011;6344;49.932;8.308;2022-08-21T14:29:32;5.23;;;4.33;;
12556;SDS011;6344;49.932;8.308;2022-08-21T14:32:08;4.93;;;4.53;;
12556;SDS011;6344;49.932;8.308;2022-08-21T14:34:36;4.80;;;4.40;;
12556;SDS011;6344;49.932;8.308;2022-08-21T14:37:02;5.23;;;4.73;;
12556;SDS011;6344;49.932;8.308;2022-08-21T14:39:31;6.27;;;3.77;;
12556;SDS011;6344;49.932;8.308;2022-08-21T14:41:58;4.43;;;4.07;;
12556;SDS011;6344;49.932;8.308;2022-08-21T14:44:25;4.03;;;3.70;;
12556;SDS011;6344;49.932;8.308;2022-08-21T14:46:53;7.07;;;4.30;;
12556;SDS011;6344;49.932;8.308;2022-08-21T14:49:21;4.57;;;4.10;;
12556;SDS011;6344;49.932;8.308;2022-08-21T14:51:48;4.83;;;4.43;;
12556;SDS011;6344;49.932;8.308;2022-08-21T14:54:21;5.13;;;4.63;;
12556;SDS011;6344;49.932;8.308;2022-08-21T14:56:49;4.37;;;3.97;;
12556;SDS011;6344;49.932;8.308;2022-08-21T14:59:16;4.80;;;4.40;;
12556;SDS011;6344;49.932;8.308;2022-08-21T15:01:45;5.23;;;4.37;;
12556;SDS011;6344;49.932;8.308;2022-08-21T15:04:12;4.40;;;4.00;;
12556;SDS011;6344;49.932;8.308;2022-08-21T15:06:39;4.50;;;4.13;;
12556;SDS011;6344;49.932;8.308;2022-08-21T15:09:06;4.40;;;4.07;;
12556;SDS011;6344;49.932;8.308;2022-08-21T15:11:33;4.20;;;3.90;;
12556;SDS011;6344;49.932;8.308;2022-08-21T15:14:02;6.03;;;4.10;;
12556;SDS011;6344;49.932;8.308;2022-08-21T15:16:31;4.07;;;3.67;;
12556;SDS011;6344;49.932;8.308;2022-08-21T15:18:59;4.40;;;4.20;;